Time;durP1;ratioP1;P1;durP2;ratioP2;P2;SDS_P1;SDS_P2;PMS_P1;PMS_P2;Temp;Humidity;BMP_temperature;BMP_pressure;BME280_temperature;BME280_humidity;BME280_pressure;Samples;Min_cycle;Max_cycle;Signal;HPM_P1;HPM_P2
2023/06/21 00:00:51;;;;;;;14.60;13.40;;;;;;;;;;108019;276;39009;-40
2023/06/21 00:03:41;;;;;;;15.20;13.90;;;;;;;;;;107986;276;39722;-40
2023/06/21 00:06:16;;;;;;;14.60;13.30;;;;;;;;;;107968;273;42857;-40
2023/06/21 00:08:49;;;;;;;14.70;13.40;;;;;;;;;;108017;276;42224;-40
2023/06/21 00:11:22;;;;;;;13.80;12.70;;;;;;;;;;108030;273;38760;-41
2023/06/21 00:13:56;;;;;;;14.00;12.80;;;;;;;;;;107926;276;42010;-40
2023/06/21 00:16:29;;;;;;;14.10;12.90;;;;;;;;;;108017;276;42984;-40
2023/06/21 00:19:02;;;;;;;13.70;12.50;;;;;;;;;;107987;273;42252;-41
2023/06/21 00:21:38;;;;;;;14.10;12.80;;;;;;;;;;108026;273;38761;-41
2023/06/21 00:24:13;;;;;;;13.40;12.30;;;;;;;;;;107978;273;39750;-40
2023/06/21 00:26:48;;;;;;;13.40;12.30;;;;;;;;;;107978;272;42988;-40
2023/06/21 00:29:21;;;;;;;14.20;13.00;;;;;;;;;;108001;269;42212;-40
2023/06/21 00:31:54;;;;;;;14.10;12.90;;;;;;;;;;108020;273;39983;-42
2023/06/21 00:34:28;;;;;;;13.70;12.50;;;;;;;;;;107973;276;39969;-40
2023/06/21 00:37:02;;;;;;;13.70;12.50;;;;;;;;;;108031;272;42852;-41
2023/06/21 00:39:37;;;;;;;14.00;12.80;;;;;;;;;;108039;276;41970;-39
2023/06/21 00:42:11;;;;;;;13.90;12.80;;;;;;;;;;108014;276;38551;-42
2023/06/21 00:44:44;;;;;;;14.30;13.10;;;;;;;;;;108028;273;40728;-40
2023/06/21 00:47:19;;;;;;;13.70;12.50;;;;;;;;;;108016;269;42774;-41
2023/06/21 00:49:53;;;;;;;14.30;13.10;;;;;;;;;;108029;272;42645;-41
2023/06/21 00:52:26;;;;;;;13.90;12.70;;;;;;;;;;107998;276;38894;-42
2023/06/21 00:55:00;;;;;;;14.70;13.50;;;;;;;;;;107992;273;39650;-42
2023/06/21 00:57:34;;;;;;;14.20;13.00;;;;;;;;;;108027;276;42690;-43
2023/06/21 01:00:20;;;;;;;14.50;13.30;;;;;;;;;;107875;272;176700;-41
2023/06/21 01:02:56;;;;;;;14.40;13.20;;;;;;;;;;108022;269;38760;-40
2023/06/21 01:05:30;;;;;;;15.10;13.80;;;;;;;;;;108026;276;40986;-43
2023/06/21 01:08:15;;;;;;;14.90;13.50;;;;;;;;;;108008;276;42971;-41
2023/06/21 01:11:03;;;;;;;14.50;13.30;;;;;;;;;;107338;276;892970;-42
2023/06/21 01:13:53;;;;;;;14.30;13.00;;;;;;;;;;108004;273;38596;-41
2023/06/21 01:16:34;;;;;;;13.90;12.70;;;;;;;;;;107962;276;39866;-41
2023/06/21 01:19:15;;;;;;;14.30;13.00;;;;;;;;;;107985;269;42989;-42
2023/06/21 01:21:49;;;;;;;14.50;13.30;;;;;;;;;;108000;276;42397;-40
2023/06/21 01:24:42;;;;;;;14.40;13.20;;;;;;;;;;107989;276;38737;-41
2023/06/21 01:27:38;;;;;;;14.40;13.20;;;;;;;;;;107951;273;45590;-40
2023/06/21 01:30:14;;;;;;;14.10;12.90;;;;;;;;;;108001;273;44136;-40
2023/06/21 01:32:47;;;;;;;14.10;12.90;;;;;;;;;;107912;276;175481;-41
2023/06/21 01:35:22;;;;;;;14.60;13.30;;;;;;;;;;107936;276;38808;-41
2023/06/21 01:37:59;;;;;;;14.70;13.50;;;;;;;;;;107983;276;39683;-40
2023/06/21 01:40:33;;;;;;;14.60;13.40;;;;;;;;;;108007;276;42937;-40
2023/06/21 01:43:07;;;;;;;15.30;14.00;;;;;;;;;;108009;269;43616;-40
2023/06/21 01:45:42;;;;;;;14.70;13.50;;;;;;;;;;107993;273;38535;-40
2023/06/21 01:48:19;;;;;;;15.00;13.70;;;;;;;;;;107762;277;175539;-41
2023/06/21 01:50:58;;;;;;;14.90;13.70;;;;;;;;;;108037;269;42902;-40
2023/06/21 01:53:34;;;;;;;14.80;13.60;;;;;;;;;;108000;273;42451;-40
2023/06/21 01:56:18;;;;;;;15.10;13.80;;;;;;;;;;107956;273;39973;-40
2023/06/21 01:58:52;;;;;;;14.90;13.70;;;;;;;;;;108011;273;40772;-40
2023/06/21 02:01:30;;;;;;;15.80;14.50;;;;;;;;;;108046;273;42861;-40
2023/06/21 02:04:07;;;;;;;15.40;14.00;;;;;;;;;;108010;276;42255;-39
2023/06/21 02:06:41;;;;;;;15.40;14.10;;;;;;;;;;108001;277;39027;-40
2023/06/21 02:09:14;;;;;;;15.20;13.90;;;;;;;;;;108038;273;40693;-41
2023/06/21 02:11:49;;;;;;;15.20;14.00;;;;;;;;;;108021;276;42871;-38
2023/06/21 02:14:22;;;;;;;15.90;14.60;;;;;;;;;;108014;269;42332;-40
2023/06/21 02:16:56;;;;;;;15.30;14.00;;;;;;;;;;107941;276;38856;-40
2023/06/21 02:19:29;;;;;;;15.40;14.10;;;;;;;;;;107992;273;39733;-39
2023/06/21 02:22:05;;;;;;;15.50;14.20;;;;;;;;;;107988;276;43030;-39
2023/06/21 02:24:40;;;;;;;15.80;14.40;;;;;;;;;;108010;276;43338;-40
2023/06/21 02:27:13;;;;;;;15.80;14.40;;;;;;;;;;107978;276;38828;-41
2023/06/21 02:29:47;;;;;;;15.30;14.00;;;;;;;;;;107995;276;39681;-40
2023/06/21 02:32:21;;;;;;;15.60;14.30;;;;;;;;;;108049;276;42852;-43
2023/06/21 02:34:54;;;;;;;16.50;15.10;;;;;;;;;;107989;269;42150;-40
2023/06/21 02:37:28;;;;;;;15.50;14.20;;;;;;;;;;107981;276;38961;-39
2023/06/21 02:40:09;;;;;;;15.70;14.40;;;;;;;;;;108000;276;39865;-41
2023/06/21 02:42:43;;;;;;;16.00;14.70;;;;;;;;;;107995;276;44001;-40
2023/06/21 02:45:17;;;;;;;15.30;14.00;;;;;;;;;;108037;276;42430;-40
2023/06/21 02:47:51;;;;;;;15.60;14.30;;;;;;;;;;107948;273;39872;-41
2023/06/21 02:50:30;;;;;;;16.20;14.80;;;;;;;;;;107335;276;910776;-42
2023/06/21 02:53:04;;;;;;;15.40;14.10;;;;;;;;;;107993;269;42846;-40
2023/06/21 02:55:37;;;;;;;16.00;14.60;;;;;;;;;;108011;276;42212;-40
2023/06/21 02:58:10;;;;;;;15.40;14.10;;;;;;;;;;107977;276;38702;-41
2023/06/21 03:00:44;;;;;;;15.50;14.10;;;;;;;;;;107979;273;39619;-40
2023/06/21 03:03:17;;;;;;;15.90;14.50;;;;;;;;;;108011;276;42826;-40
2023/06/21 03:05:51;;;;;;;15.30;14.00;;;;;;;;;;107987;276;42193;-39
2023/06/21 03:08:26;;;;;;;15.80;14.30;;;;;;;;;;107928;273;38739;-40
2023/06/21 03:10:59;;;;;;;15.00;13.70;;;;;;;;;;107986;273;39847;-41
2023/06/21 03:13:32;;;;;;;15.10;13.80;;;;;;;;;;107983;273;42955;-39
2023/06/21 03:16:07;;;;;;;15.70;14.40;;;;;;;;;;108025;276;42346;-40
2023/06/21 03:18:42;;;;;;;15.30;14.00;;;;;;;;;;107979;276;38787;-40
2023/06/21 03:21:15;;;;;;;15.70;14.40;;;;;;;;;;108016;269;39853;-40
2023/06/21 03:23:50;;;;;;;15.20;13.80;;;;;;;;;;107992;276;42827;-40
2023/06/21 03:26:23;;;;;;;14.90;13.70;;;;;;;;;;107968;276;43602;-40
2023/06/21 03:28:59;;;;;;;14.60;13.40;;;;;;;;;;107974;273;38746;-41
2023/06/21 03:31:33;;;;;;;15.10;13.80;;;;;;;;;;108005;273;39525;-40
2023/06/21 03:34:08;;;;;;;15.30;14.00;;;;;;;;;;108018;276;42888;-40
2023/06/21 03:36:42;;;;;;;14.80;13.50;;;;;;;;;;107990;276;42199;-41
2023/06/21 03:39:16;;;;;;;14.50;13.30;;;;;;;;;;107996;269;38781;-42
2023/06/21 03:41:49;;;;;;;14.40;13.20;;;;;;;;;;108015;269;39727;-40
2023/06/21 03:44:22;;;;;;;14.80;13.50;;;;;;;;;;107891;272;175549;-40
2023/06/21 03:46:56;;;;;;;14.70;13.40;;;;;;;;;;107994;273;41998;-41
2023/06/21 03:49:30;;;;;;;14.80;13.50;;;;;;;;;;107995;273;38763;-41
2023/06/21 03:52:04;;;;;;;14.50;13.20;;;;;;;;;;108000;272;39781;-41
2023/06/21 03:54:37;;;;;;;14.70;13.50;;;;;;;;;;108033;274;42862;-40
2023/06/21 03:57:13;;;;;;;14.20;12.90;;;;;;;;;;107991;273;41969;-40
2023/06/21 03:59:46;;;;;;;13.80;12.60;;;;;;;;;;107976;276;38783;-40
2023/06/21 04:02:20;;;;;;;14.00;12.80;;;;;;;;;;107990;269;39706;-41
2023/06/21 04:04:53;;;;;;;13.50;12.40;;;;;;;;;;108041;273;43995;-43
2023/06/21 04:07:28;;;;;;;14.00;12.80;;;;;;;;;;108033;276;42435;-42
2023/06/21 04:10:02;;;;;;;13.90;12.70;;;;;;;;;;107868;278;38868;-39
2023/06/21 04:12:39;;;;;;;13.70;12.50;;;;;;;;;;108042;273;39701;-41
2023/06/21 04:15:15;;;;;;;14.70;13.40;;;;;;;;;;107975;276;43184;-42
2023/06/21 04:17:49;;;;;;;14.00;12.80;;;;;;;;;;108043;276;42203;-42
2023/06/21 04:20:24;;;;;;;14.10;12.90;;;;;;;;;;107967;276;38842;-42
2023/06/21 04:22:57;;;;;;;14.30;13.10;;;;;;;;;;108018;276;39626;-41
2023/06/21 04:25:31;;;;;;;14.60;13.40;;;;;;;;;;108001;276;43931;-40
2023/06/21 04:28:04;;;;;;;13.80;12.60;;;;;;;;;;107953;273;42149;-42
2023/06/21 04:30:41;;;;;;;14.20;12.90;;;;;;;;;;107962;276;38761;-39
2023/06/21 04:33:15;;;;;;;14.40;13.20;;;;;;;;;;108018;269;39659;-39
2023/06/21 04:35:48;;;;;;;14.60;13.30;;;;;;;;;;107915;274;42818;-40
2023/06/21 04:38:22;;;;;;;14.00;12.80;;;;;;;;;;107908;273;175512;-40
2023/06/21 04:40:56;;;;;;;14.10;12.80;;;;;;;;;;108001;272;38703;-42
2023/06/21 04:43:30;;;;;;;14.40;13.20;;;;;;;;;;108008;276;39758;-40
2023/06/21 04:46:03;;;;;;;14.50;13.30;;;;;;;;;;108008;276;42857;-39
2023/06/21 04:48:37;;;;;;;15.00;13.40;;;;;;;;;;107571;273;529974;-41
2023/06/21 04:51:15;;;;;;;14.30;13.00;;;;;;;;;;107875;270;38568;-40
2023/06/21 04:53:49;;;;;;;14.10;12.90;;;;;;;;;;107905;269;175527;-42
2023/06/21 04:56:23;;;;;;;13.90;12.60;;;;;;;;;;107986;272;44009;-40
2023/06/21 04:58:56;;;;;;;14.30;13.10;;;;;;;;;;108009;272;42020;-40
2023/06/21 05:01:32;;;;;;;14.90;13.50;;;;;;;;;;108141;273;45922;-40
2023/06/21 05:04:06;;;;;;;14.00;12.80;;;;;;;;;;108004;276;39470;-41
2023/06/21 05:06:40;;;;;;;14.40;13.10;;;;;;;;;;107918;276;176123;-41
2023/06/21 05:09:14;;;;;;;14.30;13.00;;;;;;;;;;108023;276;42000;-40
2023/06/21 05:11:47;;;;;;;14.20;13.00;;;;;;;;;;107985;273;43517;-40
2023/06/21 05:14:21;;;;;;;14.60;13.30;;;;;;;;;;107959;269;39826;-42
2023/06/21 05:16:56;;;;;;;14.90;13.50;;;;;;;;;;107999;269;42860;-41
2023/06/21 05:19:32;;;;;;;14.80;13.50;;;;;;;;;;108004;269;43195;-40
2023/06/21 05:22:09;;;;;;;14.70;13.40;;;;;;;;;;107884;273;45742;-40
2023/06/21 05:24:44;;;;;;;15.10;13.80;;;;;;;;;;107970;273;39685;-41
2023/06/21 05:27:19;;;;;;;14.70;13.40;;;;;;;;;;107973;276;43000;-41
2023/06/21 05:29:53;;;;;;;14.90;13.50;;;;;;;;;;108047;276;42197;-42
2023/06/21 05:32:26;;;;;;;14.40;13.20;;;;;;;;;;107982;269;38595;-40
2023/06/21 05:35:00;;;;;;;14.20;13.00;;;;;;;;;;108015;269;39584;-42
2023/06/21 05:37:34;;;;;;;14.60;13.30;;;;;;;;;;107986;276;45083;-41
2023/06/21 05:40:12;;;;;;;14.10;12.80;;;;;;;;;;107989;269;42306;-41
2023/06/21 05:42:45;;;;;;;14.50;13.20;;;;;;;;;;108054;273;44531;-41
2023/06/21 05:45:20;;;;;;;14.90;13.60;;;;;;;;;;108037;276;39459;-40
2023/06/21 05:47:53;;;;;;;14.90;13.70;;;;;;;;;;108051;273;44120;-39
2023/06/21 05:50:30;;;;;;;15.10;13.80;;;;;;;;;;107951;276;42175;-40
2023/06/21 05:53:08;;;;;;;14.90;13.60;;;;;;;;;;108043;269;46078;-40
2023/06/21 05:55:41;;;;;;;14.60;13.30;;;;;;;;;;108021;276;39736;-40
2023/06/21 05:58:15;;;;;;;14.80;13.50;;;;;;;;;;107995;276;42879;-40
2023/06/21 06:00:48;;;;;;;14.00;12.80;;;;;;;;;;107914;276;42384;-40
2023/06/21 06:03:24;;;;;;;13.90;12.70;;;;;;;;;;107963;269;46305;-40
2023/06/21 06:06:00;;;;;;;14.30;13.00;;;;;;;;;;107972;269;39741;-42
2023/06/21 06:08:33;;;;;;;14.50;13.20;;;;;;;;;;108003;276;43095;-41
2023/06/21 06:11:07;;;;;;;14.80;13.40;;;;;;;;;;107956;276;42213;-40
2023/06/21 06:13:41;;;;;;;14.60;13.20;;;;;;;;;;108005;269;46935;-41
2023/06/21 06:16:15;;;;;;;14.40;13.00;;;;;;;;;;108014;276;39468;-40
2023/06/21 06:18:48;;;;;;;14.70;13.40;;;;;;;;;;108036;269;43772;-41
2023/06/21 06:21:22;;;;;;;14.70;13.40;;;;;;;;;;107972;276;42174;-40
2023/06/21 06:23:56;;;;;;;15.30;13.70;;;;;;;;;;108042;273;46141;-42
2023/06/21 06:26:30;;;;;;;14.20;12.90;;;;;;;;;;107910;276;40846;-40
2023/06/21 06:29:03;;;;;;;14.90;13.60;;;;;;;;;;108034;276;42972;-40
2023/06/21 06:31:37;;;;;;;15.20;13.80;;;;;;;;;;108000;269;42200;-40
2023/06/21 06:34:10;;;;;;;14.50;13.20;;;;;;;;;;107972;269;45946;-41
2023/06/21 06:36:43;;;;;;;14.20;13.00;;;;;;;;;;108027;276;39443;-39
2023/06/21 06:39:19;;;;;;;14.10;12.90;;;;;;;;;;108055;269;44200;-40
2023/06/21 06:41:52;;;;;;;14.60;13.30;;;;;;;;;;107967;276;42305;-41
2023/06/21 06:44:25;;;;;;;14.40;13.20;;;;;;;;;;107991;273;44793;-40
2023/06/21 06:47:00;;;;;;;14.10;12.80;;;;;;;;;;108013;273;40657;-40
2023/06/21 06:49:34;;;;;;;14.20;13.00;;;;;;;;;;108014;273;42849;-41
2023/06/21 06:52:11;;;;;;;14.40;13.10;;;;;;;;;;107976;273;41959;-39
2023/06/21 06:54:44;;;;;;;14.20;12.90;;;;;;;;;;107988;273;46314;-39
2023/06/21 06:57:18;;;;;;;14.50;13.20;;;;;;;;;;108045;273;40849;-40
2023/06/21 07:00:15;;;;;;;14.60;13.20;;;;;;;;;;107984;269;42641;-41
2023/06/21 07:02:51;;;;;;;14.60;13.30;;;;;;;;;;107977;276;44480;-39
2023/06/21 07:05:24;;;;;;;13.90;12.60;;;;;;;;;;108002;275;175350;-41
2023/06/21 07:08:00;;;;;;;13.80;12.60;;;;;;;;;;107959;269;40796;-40
2023/06/21 07:10:36;;;;;;;14.00;12.70;;;;;;;;;;107936;269;42875;-41
2023/06/21 07:13:09;;;;;;;14.10;12.80;;;;;;;;;;107896;277;42156;-42
2023/06/21 07:15:44;;;;;;;14.00;12.70;;;;;;;;;;107948;269;38976;-42
2023/06/21 07:18:20;;;;;;;14.10;12.80;;;;;;;;;;107934;273;39469;-38
2023/06/21 07:20:54;;;;;;;13.70;12.50;;;;;;;;;;107898;269;43891;-38
2023/06/21 07:23:29;;;;;;;14.30;13.00;;;;;;;;;;107908;276;42382;-38
2023/06/21 07:26:04;;;;;;;14.20;13.00;;;;;;;;;;107989;276;38506;-38
2023/06/21 07:28:38;;;;;;;13.40;12.20;;;;;;;;;;107964;276;39803;-38
2023/06/21 07:31:11;;;;;;;14.10;12.80;;;;;;;;;;107960;276;42950;-37
2023/06/21 07:33:44;;;;;;;14.40;13.00;;;;;;;;;;107954;273;43195;-38
2023/06/21 07:36:18;;;;;;;13.40;12.20;;;;;;;;;;108011;276;38829;-38
2023/06/21 07:38:53;;;;;;;13.80;12.60;;;;;;;;;;107994;269;40798;-39
2023/06/21 07:41:26;;;;;;;14.20;13.00;;;;;;;;;;107915;269;42626;-41
2023/06/21 07:44:01;;;;;;;13.80;12.50;;;;;;;;;;107923;273;43186;-38
2023/06/21 07:46:38;;;;;;;14.10;12.90;;;;;;;;;;107892;279;40945;-38
2023/06/21 07:49:13;;;;;;;14.20;13.00;;;;;;;;;;107969;269;39915;-39
2023/06/21 07:51:47;;;;;;;13.90;12.60;;;;;;;;;;107942;269;43983;-38
2023/06/21 07:54:21;;;;;;;14.30;13.00;;;;;;;;;;107899;273;41992;-40
2023/06/21 07:56:56;;;;;;;13.90;12.70;;;;;;;;;;107942;277;39920;-41
2023/06/21 07:59:30;;;;;;;14.60;13.30;;;;;;;;;;107924;269;39738;-39
2023/06/21 08:02:08;;;;;;;14.00;12.80;;;;;;;;;;107944;277;42934;-48
2023/06/21 08:04:42;;;;;;;14.10;12.90;;;;;;;;;;107884;269;42236;-41
2023/06/21 08:07:18;;;;;;;14.30;13.00;;;;;;;;;;107957;277;41206;-46
2023/06/21 08:09:55;;;;;;;13.90;12.70;;;;;;;;;;107949;273;39491;-46
2023/06/21 08:12:29;;;;;;;13.60;12.40;;;;;;;;;;107948;270;44057;-42
2023/06/21 08:15:04;;;;;;;13.50;12.40;;;;;;;;;;107285;269;891248;-38
2023/06/21 08:17:43;;;;;;;13.30;12.10;;;;;;;;;;107977;274;38674;-39
2023/06/21 08:20:17;;;;;;;13.80;12.70;;;;;;;;;;108005;276;39776;-39
2023/06/21 08:22:50;;;;;;;13.50;12.40;;;;;;;;;;108007;269;44182;-40
2023/06/21 08:25:23;;;;;;;13.40;12.20;;;;;;;;;;107946;276;42311;-41
2023/06/21 08:27:57;;;;;;;13.80;12.60;;;;;;;;;;108018;273;38773;-42
2023/06/21 08:30:31;;;;;;;13.40;12.20;;;;;;;;;;107980;269;39685;-40
2023/06/21 08:33:06;;;;;;;13.50;12.30;;;;;;;;;;107924;276;175343;-40
2023/06/21 08:35:42;;;;;;;13.30;12.20;;;;;;;;;;107999;276;42189;-39
2023/06/21 08:38:16;;;;;;;13.60;12.40;;;;;;;;;;107986;269;38816;-38
2023/06/21 08:41:05;;;;;;;13.80;12.60;;;;;;;;;;108003;276;39696;-41
2023/06/21 08:43:39;;;;;;;13.30;12.20;;;;;;;;;;107954;273;43933;-41
2023/06/21 08:46:13;;;;;;;13.80;12.60;;;;;;;;;;107946;276;41943;-40
2023/06/21 08:48:53;;;;;;;13.40;12.30;;;;;;;;;;107988;276;38543;-38
2023/06/21 08:51:26;;;;;;;14.00;12.80;;;;;;;;;;107991;276;40316;-47
2023/06/21 08:54:08;;;;;;;13.40;12.30;;;;;;;;;;107983;276;44198;-42
2023/06/21 08:56:50;;;;;;;13.50;12.40;;;;;;;;;;108001;273;42172;-41
2023/06/21 08:59:25;;;;;;;;;;;;;;;;;;107930;277;39062;-41
2023/06/21 09:02:09;;;;;;;13.40;12.30;;;;;;;;;;108022;276;39997;-41
2023/06/21 09:04:48;;;;;;;13.30;12.20;;;;;;;;;;108017;269;43349;-41
2023/06/21 09:07:22;;;;;;;13.20;12.20;;;;;;;;;;107946;269;49100;-45
2023/06/21 09:10:00;;;;;;;13.00;11.80;;;;;;;;;;107963;276;38776;-41
2023/06/21 09:12:41;;;;;;;12.80;11.60;;;;;;;;;;107975;276;39632;-40
2023/06/21 09:15:19;;;;;;;12.70;11.60;;;;;;;;;;107941;269;44227;-40
2023/06/21 09:17:57;;;;;;;12.40;11.40;;;;;;;;;;107967;277;50535;-40
2023/06/21 09:20:34;;;;;;;13.00;11.90;;;;;;;;;;107953;269;41024;-40
2023/06/21 09:23:10;;;;;;;13.10;12.00;;;;;;;;;;107843;277;175294;-40
2023/06/21 09:25:44;;;;;;;12.90;11.80;;;;;;;;;;107316;273;913350;-40
2023/06/21 09:28:18;;;;;;;12.90;11.80;;;;;;;;;;107991;273;42143;-38
2023/06/21 09:30:52;;;;;;;13.40;12.30;;;;;;;;;;107973;277;38931;-42
2023/06/21 09:33:27;;;;;;;13.30;12.20;;;;;;;;;;107861;277;39852;-40
2023/06/21 09:36:01;;;;;;;13.10;12.00;;;;;;;;;;107882;277;42968;-39
2023/06/21 09:38:37;;;;;;;12.70;11.70;;;;;;;;;;107946;277;43535;-40
2023/06/21 09:41:15;;;;;;;13.40;12.20;;;;;;;;;;107946;273;39066;-41
2023/06/21 09:43:49;;;;;;;13.40;12.30;;;;;;;;;;107958;277;40837;-43
2023/06/21 09:46:24;;;;;;;13.10;12.00;;;;;;;;;;107912;277;43063;-41
2023/06/21 09:49:08;;;;;;;13.40;12.30;;;;;;;;;;107941;269;43195;-39
2023/06/21 09:51:47;;;;;;;12.80;11.80;;;;;;;;;;108016;273;39881;-43
2023/06/21 09:54:23;;;;;;;13.40;12.30;;;;;;;;;;107984;277;39486;-41
2023/06/21 09:56:56;;;;;;;13.50;12.40;;;;;;;;;;107898;277;43935;-39
2023/06/21 09:59:30;;;;;;;13.40;12.20;;;;;;;;;;107947;270;43318;-43
2023/06/21 10:02:06;;;;;;;13.40;12.30;;;;;;;;;;107924;270;38753;-41
2023/06/21 10:04:45;;;;;;;13.60;12.40;;;;;;;;;;107921;277;39770;-41
2023/06/21 10:07:26;;;;;;;12.90;11.80;;;;;;;;;;107740;270;175263;-36
2023/06/21 10:10:07;;;;;;;12.90;11.80;;;;;;;;;;107905;270;42175;-38
2023/06/21 10:12:53;;;;;;;13.20;12.00;;;;;;;;;;107909;277;38545;-39
2023/06/21 10:15:32;;;;;;;12.90;11.80;;;;;;;;;;107896;269;40150;-41
2023/06/21 10:18:09;;;;;;;12.80;11.70;;;;;;;;;;107832;269;43076;-44
2023/06/21 10:20:46;;;;;;;12.50;11.50;;;;;;;;;;107902;277;43412;-40
2023/06/21 10:23:20;;;;;;;13.10;12.00;;;;;;;;;;107910;277;40130;-39
2023/06/21 10:25:54;;;;;;;12.90;11.80;;;;;;;;;;107971;273;39486;-38
2023/06/21 10:28:31;;;;;;;13.00;11.90;;;;;;;;;;107934;273;42795;-38
2023/06/21 10:31:06;;;;;;;13.90;12.70;;;;;;;;;;107967;277;43296;-40
2023/06/21 10:33:41;;;;;;;13.40;12.30;;;;;;;;;;107912;277;38859;-41
2023/06/21 10:36:26;;;;;;;13.80;12.70;;;;;;;;;;107962;269;40739;-43
2023/06/21 10:39:06;;;;;;;13.90;12.80;;;;;;;;;;107834;277;42810;-47
2023/06/21 10:41:41;;;;;;;13.80;12.60;;;;;;;;;;107880;277;42145;-41
2023/06/21 10:44:16;;;;;;;14.00;12.90;;;;;;;;;;107967;273;40152;-39
2023/06/21 10:46:54;;;;;;;14.00;12.90;;;;;;;;;;107907;269;40878;-39
2023/06/21 10:49:30;;;;;;;13.80;12.60;;;;;;;;;;107943;273;42993;-37
2023/06/21 10:52:08;;;;;;;13.70;12.60;;;;;;;;;;108026;276;42261;-38
2023/06/21 10:54:44;;;;;;;13.50;12.30;;;;;;;;;;108015;273;38780;-39
2023/06/21 10:57:22;;;;;;;13.60;12.30;;;;;;;;;;107975;273;39522;-38
2023/06/21 10:59:57;;;;;;;13.20;12.10;;;;;;;;;;107950;269;50165;-39
2023/06/21 11:02:31;;;;;;;12.90;11.80;;;;;;;;;;108010;269;42202;-39
2023/06/21 11:05:31;;;;;;;13.20;12.10;;;;;;;;;;108019;269;38707;-38
2023/06/21 11:08:06;;;;;;;13.40;12.30;;;;;;;;;;107961;269;39573;-38
2023/06/21 11:10:43;;;;;;;13.30;12.20;;;;;;;;;;108021;276;44193;-38
2023/06/21 11:13:38;;;;;;;12.80;11.70;;;;;;;;;;107973;273;42273;-38
2023/06/21 11:16:17;;;;;;;13.10;12.00;;;;;;;;;;107905;276;38779;-39
2023/06/21 11:18:57;;;;;;;13.30;12.20;;;;;;;;;;107930;276;39487;-39
2023/06/21 11:21:49;;;;;;;13.10;12.00;;;;;;;;;;107946;277;42890;-37
2023/06/21 11:24:23;;;;;;;13.80;12.60;;;;;;;;;;107982;269;42083;-39
2023/06/21 11:26:59;;;;;;;13.30;12.20;;;;;;;;;;108013;276;39052;-37
2023/06/21 11:29:59;;;;;;;13.40;12.30;;;;;;;;;;107978;276;39765;-37
2023/06/21 11:32:38;;;;;;;13.70;12.60;;;;;;;;;;107979;276;42877;-39
2023/06/21 11:35:13;;;;;;;14.00;12.80;;;;;;;;;;107985;276;42303;-37
2023/06/21 11:37:49;;;;;;;13.30;12.20;;;;;;;;;;107992;276;38553;-38
2023/06/21 11:40:31;;;;;;;13.90;12.80;;;;;;;;;;107918;276;39976;-42
2023/06/21 11:43:09;;;;;;;13.70;12.60;;;;;;;;;;108058;276;42887;-40
2023/06/21 11:45:42;;;;;;;13.50;12.40;;;;;;;;;;108007;276;43277;-38
2023/06/21 11:48:21;;;;;;;13.60;12.50;;;;;;;;;;107983;269;38761;-41
2023/06/21 11:50:56;;;;;;;14.20;13.00;;;;;;;;;;107936;276;47809;-37
2023/06/21 11:53:41;;;;;;;13.80;12.60;;;;;;;;;;107983;276;43880;-42
2023/06/21 11:56:18;;;;;;;14.00;12.80;;;;;;;;;;108005;276;42148;-38
2023/06/21 11:58:53;;;;;;;13.90;12.80;;;;;;;;;;107953;269;38637;-42
2023/06/21 12:01:29;;;;;;;14.80;13.50;;;;;;;;;;108025;273;45825;-41
2023/06/21 12:04:03;;;;;;;14.80;13.60;;;;;;;;;;108042;269;42814;-39
2023/06/21 12:06:39;;;;;;;15.20;13.90;;;;;;;;;;107948;273;43333;-37
2023/06/21 12:09:13;;;;;;;14.70;13.40;;;;;;;;;;107778;277;175480;-39
2023/06/21 12:11:50;;;;;;;14.70;13.40;;;;;;;;;;107961;277;46992;-38
2023/06/21 12:14:24;;;;;;;14.80;13.60;;;;;;;;;;107942;277;42818;-38
2023/06/21 12:17:00;;;;;;;15.60;14.20;;;;;;;;;;107934;273;42204;-39
2023/06/21 12:19:35;;;;;;;15.30;14.00;;;;;;;;;;107893;273;38590;-40
2023/06/21 12:22:09;;;;;;;15.50;14.20;;;;;;;;;;107845;277;48041;-40
2023/06/21 12:24:46;;;;;;;15.30;14.10;;;;;;;;;;107827;277;175341;-39
2023/06/21 12:27:22;;;;;;;16.40;15.10;;;;;;;;;;107959;269;42157;-38
2023/06/21 12:29:59;;;;;;;15.80;14.50;;;;;;;;;;107902;277;38933;-40
2023/06/21 12:32:42;;;;;;;15.70;14.40;;;;;;;;;;107950;277;46921;-37
2023/06/21 12:35:21;;;;;;;15.70;14.30;;;;;;;;;;107922;277;43995;-38
2023/06/21 12:37:59;;;;;;;15.80;14.50;;;;;;;;;;107962;277;42167;-37
2023/06/21 12:40:33;;;;;;;15.10;13.80;;;;;;;;;;107877;270;38537;-38
2023/06/21 12:43:06;;;;;;;14.60;13.40;;;;;;;;;;107882;277;39667;-40
2023/06/21 12:45:41;;;;;;;15.10;13.80;;;;;;;;;;107890;273;42880;-41
2023/06/21 12:48:22;;;;;;;14.60;13.40;;;;;;;;;;107478;273;537122;-40
2023/06/21 12:51:04;;;;;;;15.10;13.80;;;;;;;;;;107856;275;38529;-39
2023/06/21 12:53:43;;;;;;;15.20;13.90;;;;;;;;;;107936;277;39476;-37
2023/06/21 12:56:20;;;;;;;14.30;13.10;;;;;;;;;;107907;277;42891;-39
2023/06/21 12:58:58;;;;;;;14.30;13.10;;;;;;;;;;107163;272;892088;-43
2023/06/21 13:01:34;;;;;;;14.20;13.10;;;;;;;;;;107852;278;38955;-40
2023/06/21 13:04:10;;;;;;;14.60;13.30;;;;;;;;;;107925;278;39687;-39
2023/06/21 13:06:43;;;;;;;14.50;13.30;;;;;;;;;;107972;273;43329;-39
2023/06/21 13:09:19;;;;;;;14.70;13.40;;;;;;;;;;107952;269;42281;-43
2023/06/21 13:11:52;;;;;;;15.00;13.70;;;;;;;;;;107962;269;38742;-38
2023/06/21 13:14:25;;;;;;;14.60;13.40;;;;;;;;;;107863;276;39767;-41
2023/06/21 13:17:00;;;;;;;14.50;13.20;;;;;;;;;;108005;273;42804;-43
2023/06/21 13:19:38;;;;;;;14.40;13.20;;;;;;;;;;107979;269;41955;-42
2023/06/21 13:22:16;;;;;;;14.30;13.10;;;;;;;;;;107957;269;38511;-42
2023/06/21 13:24:50;;;;;;;14.40;13.20;;;;;;;;;;108026;269;40957;-39
2023/06/21 13:27:24;;;;;;;14.40;13.20;;;;;;;;;;107967;273;44005;-40
2023/06/21 13:30:00;;;;;;;14.30;13.10;;;;;;;;;;107963;273;41986;-41
2023/06/21 13:32:36;;;;;;;14.40;13.20;;;;;;;;;;107909;269;38780;-41
2023/06/21 13:35:13;;;;;;;13.90;12.70;;;;;;;;;;107989;277;39461;-41
2023/06/21 13:37:46;;;;;;;14.60;13.40;;;;;;;;;;107865;277;175316;-45
2023/06/21 13:40:21;;;;;;;13.90;12.70;;;;;;;;;;107984;269;42188;-42
2023/06/21 13:42:54;;;;;;;14.50;13.30;;;;;;;;;;107956;277;40015;-41
2023/06/21 13:45:28;;;;;;;14.50;13.20;;;;;;;;;;107989;273;39731;-41
2023/06/21 13:48:02;;;;;;;14.70;13.50;;;;;;;;;;108009;277;42771;-41
2023/06/21 13:50:39;;;;;;;14.10;12.90;;;;;;;;;;108025;273;42292;-41
2023/06/21 13:53:12;;;;;;;14.40;13.10;;;;;;;;;;107986;277;38731;-40
2023/06/21 13:55:46;;;;;;;14.30;13.10;;;;;;;;;;108075;269;39633;-41
2023/06/21 13:58:20;;;;;;;14.70;13.50;;;;;;;;;;107960;269;43913;-44
2023/06/21 14:00:53;;;;;;;15.00;13.70;;;;;;;;;;107882;276;174776;-41
2023/06/21 14:03:26;;;;;;;14.20;12.90;;;;;;;;;;108000;273;38790;-42
2023/06/21 14:06:01;;;;;;;14.70;13.40;;;;;;;;;;107899;276;39684;-42
2023/06/21 14:08:34;;;;;;;14.80;13.50;;;;;;;;;;107915;273;44011;-40
2023/06/21 14:11:10;;;;;;;14.30;13.00;;;;;;;;;;107979;276;43327;-40
2023/06/21 14:13:44;;;;;;;14.30;13.10;;;;;;;;;;107892;276;38846;-40
2023/06/21 14:16:17;;;;;;;14.80;13.50;;;;;;;;;;107943;276;39486;-41
2023/06/21 14:18:52;;;;;;;14.40;13.20;;;;;;;;;;107951;269;43969;-42
2023/06/21 14:21:29;;;;;;;14.60;13.40;;;;;;;;;;107930;269;41937;-42
2023/06/21 14:24:03;;;;;;;14.60;13.30;;;;;;;;;;107802;279;38779;-41
2023/06/21 14:26:38;;;;;;;14.30;13.10;;;;;;;;;;107991;273;40911;-41
2023/06/21 14:29:13;;;;;;;14.50;13.30;;;;;;;;;;107973;273;42878;-40
2023/06/21 14:31:47;;;;;;;13.90;12.70;;;;;;;;;;107978;276;42023;-40
2023/06/21 14:34:24;;;;;;;13.90;12.60;;;;;;;;;;107912;276;38572;-40
2023/06/21 14:36:58;;;;;;;13.90;12.70;;;;;;;;;;107877;274;40991;-41
2023/06/21 14:39:31;;;;;;;13.90;12.70;;;;;;;;;;107981;276;42860;-42
2023/06/21 14:42:11;;;;;;;13.90;12.70;;;;;;;;;;107949;273;42185;-40
2023/06/21 14:44:48;;;;;;;13.80;12.60;;;;;;;;;;107919;273;38561;-42
2023/06/21 14:47:24;;;;;;;13.80;12.70;;;;;;;;;;107994;273;40675;-40
2023/06/21 14:49:57;;;;;;;14.00;12.80;;;;;;;;;;107952;269;42975;-41
2023/06/21 14:52:31;;;;;;;13.70;12.60;;;;;;;;;;107931;269;42192;-41
2023/06/21 14:55:08;;;;;;;13.40;12.30;;;;;;;;;;107888;276;38727;-41
2023/06/21 14:57:42;;;;;;;13.10;12.00;;;;;;;;;;107950;277;39822;-41
2023/06/21 15:00:18;;;;;;;13.50;12.30;;;;;;;;;;107931;276;43770;-41
2023/06/21 15:02:52;;;;;;;14.10;12.80;;;;;;;;;;107964;273;42160;-41
2023/06/21 15:05:26;;;;;;;13.60;12.40;;;;;;;;;;107906;277;45351;-41